sensor_id;sensor_type;location;lat;lon;timestamp;P1;durP1;ratioP1;P2;durP2;ratioP2
26536;SDS011;14204;51.262;5.488;2023-10-13T00:01:21;40.63;;;23.85;;
26536;SDS011;14204;51.262;5.488;2023-10-13T00:03:48;46.42;;;24.67;;
26536;SDS011;14204;51.262;5.488;2023-10-13T00:06:16;35.33;;;23.20;;
26536;SDS011;14204;51.262;5.488;2023-10-13T00:08:43;44.15;;;23.33;;
26536;SDS011;14204;51.262;5.488;2023-10-13T00:11:13;39.08;;;23.35;;
26536;SDS011;14204;51.262;5.488;2023-10-13T00:13:38;42.38;;;23.17;;
26536;SDS011;14204;51.262;5.488;2023-10-13T00:16:17;41.97;;;24.48;;
26536;SDS011;14204;51.262;5.488;2023-10-13T00:18:46;41.75;;;23.60;;
26536;SDS011;14204;51.262;5.488;2023-10-13T00:21:19;41.15;;;23.15;;
26536;SDS011;14204;51.262;5.488;2023-10-13T00:23:56;50.20;;;26.67;;
26536;SDS011;14204;51.262;5.488;2023-10-13T00:26:25;42.00;;;25.77;;
26536;SDS011;14204;51.262;5.488;2023-10-13T00:28:57;45.25;;;25.27;;
26536;SDS011;14204;51.262;5.488;2023-10-13T00:31:35;45.45;;;26.98;;
26536;SDS011;14204;51.262;5.488;2023-10-13T00:36:54;49.65;;;27.02;;
26536;SDS011;14204;51.262;5.488;2023-10-13T00:39:38;48.63;;;27.73;;
26536;SDS011;14204;51.262;5.488;2023-10-13T00:42:11;54.53;;;29.13;;
26536;SDS011;14204;51.262;5.488;2023-10-13T00:44:55;57.97;;;30.45;;
26536;SDS011;14204;51.262;5.488;2023-10-13T00:47:21;47.00;;;27.20;;
26536;SDS011;14204;51.262;5.488;2023-10-13T00:50:07;52.17;;;29.40;;
26536;SDS011;14204;51.262;5.488;2023-10-13T00:52:36;49.10;;;28.70;;
26536;SDS011;14204;51.262;5.488;2023-10-13T00:55:06;60.60;;;31.92;;
26536;SDS011;14204;51.262;5.488;2023-10-13T00:57:35;56.15;;;30.25;;
26536;SDS011;14204;51.262;5.488;2023-10-13T01:00:01;55.70;;;30.75;;
26536;SDS011;14204;51.262;5.488;2023-10-13T01:02:43;54.00;;;29.52;;
26536;SDS011;14204;51.262;5.488;2023-10-13T01:05:08;52.92;;;30.83;;
26536;SDS011;14204;51.262;5.488;2023-10-13T01:07:35;50.05;;;29.95;;
26536;SDS011;14204;51.262;5.488;2023-10-13T01:10:09;50.80;;;28.02;;
26536;SDS011;14204;51.262;5.488;2023-10-13T01:12:39;50.35;;;30.20;;
26536;SDS011;14204;51.262;5.488;2023-10-13T01:15:09;55.28;;;30.85;;
26536;SDS011;14204;51.262;5.488;2023-10-13T01:17:36;54.95;;;31.83;;
26536;SDS011;14204;51.262;5.488;2023-10-13T01:20:02;60.50;;;31.33;;
26536;SDS011;14204;51.262;5.488;2023-10-13T01:22:33;53.50;;;29.67;;
26536;SDS011;14204;51.262;5.488;2023-10-13T01:24:58;57.67;;;32.55;;
26536;SDS011;14204;51.262;5.488;2023-10-13T01:27:36;53.85;;;31.17;;
26536;SDS011;14204;51.262;5.488;2023-10-13T01:30:03;58.42;;;33.28;;
26536;SDS011;14204;51.262;5.488;2023-10-13T01:32:48;76.97;;;35.70;;
26536;SDS011;14204;51.262;5.488;2023-10-13T01:35:16;74.43;;;36.40;;
26536;SDS011;14204;51.262;5.488;2023-10-13T01:37:44;64.10;;;33.30;;
26536;SDS011;14204;51.262;5.488;2023-10-13T01:40:10;67.78;;;35.17;;
26536;SDS011;14204;51.262;5.488;2023-10-13T01:42:38;51.90;;;30.38;;
26536;SDS011;14204;51.262;5.488;2023-10-13T01:45:04;61.20;;;32.88;;
26536;SDS011;14204;51.262;5.488;2023-10-13T01:47:34;72.47;;;32.20;;
26536;SDS011;14204;51.262;5.488;2023-10-13T01:49:59;69.75;;;35.97;;
26536;SDS011;14204;51.262;5.488;2023-10-13T01:52:46;59.97;;;32.33;;
26536;SDS011;14204;51.262;5.488;2023-10-13T01:55:13;63.67;;;34.05;;
26536;SDS011;14204;51.262;5.488;2023-10-13T01:57:39;50.03;;;29.20;;
26536;SDS011;14204;51.262;5.488;2023-10-13T02:00:08;58.85;;;32.58;;
26536;SDS011;14204;51.262;5.488;2023-10-13T02:02:44;51.85;;;29.55;;
26536;SDS011;14204;51.262;5.488;2023-10-13T02:05:10;58.33;;;31.58;;
26536;SDS011;14204;51.262;5.488;2023-10-13T02:07:42;52.13;;;30.50;;
26536;SDS011;14204;51.262;5.488;2023-10-13T02:10:11;56.53;;;30.67;;
26536;SDS011;14204;51.262;5.488;2023-10-13T02:12:37;60.35;;;32.40;;
26536;SDS011;14204;51.262;5.488;2023-10-13T02:15:10;56.70;;;32.17;;
26536;SDS011;14204;51.262;5.488;2023-10-13T02:17:45;48.72;;;29.48;;
26536;SDS011;14204;51.262;5.488;2023-10-13T02:20:16;58.30;;;33.10;;
26536;SDS011;14204;51.262;5.488;2023-10-13T02:22:55;54.75;;;31.00;;
26536;SDS011;14204;51.262;5.488;2023-10-13T02:25:21;48.70;;;28.88;;
26536;SDS011;14204;51.262;5.488;2023-10-13T02:28:05;62.80;;;30.67;;
26536;SDS011;14204;51.262;5.488;2023-10-13T02:30:37;57.42;;;31.52;;
26536;SDS011;14204;51.262;5.488;2023-10-13T02:33:13;60.58;;;32.20;;
26536;SDS011;14204;51.262;5.488;2023-10-13T02:35:39;49.17;;;29.15;;
26536;SDS011;14204;51.262;5.488;2023-10-13T02:38:21;59.03;;;31.33;;
26536;SDS011;14204;51.262;5.488;2023-10-13T02:40:55;65.40;;;34.95;;
26536;SDS011;14204;51.262;5.488;2023-10-13T02:43:21;53.83;;;28.63;;
26536;SDS011;14204;51.262;5.488;2023-10-13T02:45:54;64.40;;;32.67;;
26536;SDS011;14204;51.262;5.488;2023-10-13T02:48:26;59.22;;;30.42;;
26536;SDS011;14204;51.262;5.488;2023-10-13T02:51:05;55.72;;;30.50;;
26536;SDS011;14204;51.262;5.488;2023-10-13T02:53:49;45.88;;;28.40;;
26536;SDS011;14204;51.262;5.488;2023-10-13T02:56:15;57.88;;;32.60;;
26536;SDS011;14204;51.262;5.488;2023-10-13T03:01:18;53.75;;;29.30;;
26536;SDS011;14204;51.262;5.488;2023-10-13T03:03:49;54.50;;;27.70;;
26536;SDS011;14204;51.262;5.488;2023-10-13T03:06:17;62.55;;;33.17;;
26536;SDS011;14204;51.262;5.488;2023-10-13T03:08:57;57.05;;;31.95;;
26536;SDS011;14204;51.262;5.488;2023-10-13T03:11:59;57.05;;;31.58;;
26536;SDS011;14204;51.262;5.488;2023-10-13T03:14:24;63.75;;;32.47;;
26536;SDS011;14204;51.262;5.488;2023-10-13T03:16:51;57.92;;;31.98;;
26536;SDS011;14204;51.262;5.488;2023-10-13T03:19:17;55.00;;;32.00;;
26536;SDS011;14204;51.262;5.488;2023-10-13T03:21:44;56.95;;;30.88;;
26536;SDS011;14204;51.262;5.488;2023-10-13T03:24:20;61.28;;;31.98;;
26536;SDS011;14204;51.262;5.488;2023-10-13T03:26:58;50.25;;;28.70;;
26536;SDS011;14204;51.262;5.488;2023-10-13T03:29:38;55.70;;;30.02;;
26536;SDS011;14204;51.262;5.488;2023-10-13T03:32:12;49.33;;;28.05;;
26536;SDS011;14204;51.262;5.488;2023-10-13T03:34:42;50.53;;;30.52;;
26536;SDS011;14204;51.262;5.488;2023-10-13T03:37:17;49.60;;;27.40;;
26536;SDS011;14204;51.262;5.488;2023-10-13T03:39:45;51.20;;;28.63;;
26536;SDS011;14204;51.262;5.488;2023-10-13T03:42:11;53.70;;;29.15;;
26536;SDS011;14204;51.262;5.488;2023-10-13T03:44:46;54.28;;;29.25;;
26536;SDS011;14204;51.262;5.488;2023-10-13T03:47:13;51.78;;;27.58;;
26536;SDS011;14204;51.262;5.488;2023-10-13T03:49:54;52.95;;;29.92;;
26536;SDS011;14204;51.262;5.488;2023-10-13T03:52:38;53.22;;;27.42;;
26536;SDS011;14204;51.262;5.488;2023-10-13T03:55:04;54.03;;;29.95;;
26536;SDS011;14204;51.262;5.488;2023-10-13T03:57:31;56.70;;;31.60;;
26536;SDS011;14204;51.262;5.488;2023-10-13T03:59:59;46.90;;;26.50;;
26536;SDS011;14204;51.262;5.488;2023-10-13T04:02:33;48.55;;;27.42;;
26536;SDS011;14204;51.262;5.488;2023-10-13T04:04:59;49.42;;;26.38;;
26536;SDS011;14204;51.262;5.488;2023-10-13T04:07:32;48.72;;;25.38;;
26536;SDS011;14204;51.262;5.488;2023-10-13T04:10:05;42.40;;;25.38;;
26536;SDS011;14204;51.262;5.488;2023-10-13T04:13:04;49.75;;;24.80;;
26536;SDS011;14204;51.262;5.488;2023-10-13T04:15:49;45.45;;;25.48;;
26536;SDS011;14204;51.262;5.488;2023-10-13T04:18:40;50.15;;;25.05;;
26536;SDS011;14204;51.262;5.488;2023-10-13T04:21:26;44.60;;;23.15;;
26536;SDS011;14204;51.262;5.488;2023-10-13T04:24:07;46.85;;;25.60;;
26536;SDS011;14204;51.262;5.488;2023-10-13T04:26:48;47.95;;;27.30;;
26536;SDS011;14204;51.262;5.488;2023-10-13T04:29:33;52.03;;;27.05;;
26536;SDS011;14204;51.262;5.488;2023-10-13T04:32:15;42.58;;;23.63;;
26536;SDS011;14204;51.262;5.488;2023-10-13T04:34:54;46.42;;;23.55;;
26536;SDS011;14204;51.262;5.488;2023-10-13T04:37:24;39.58;;;22.33;;
26536;SDS011;14204;51.262;5.488;2023-10-13T04:39:58;50.33;;;25.65;;
26536;SDS011;14204;51.262;5.488;2023-10-13T04:42:36;39.05;;;23.20;;
26536;SDS011;14204;51.262;5.488;2023-10-13T04:45:15;42.38;;;23.63;;
26536;SDS011;14204;51.262;5.488;2023-10-13T04:47:57;41.90;;;21.13;;
26536;SDS011;14204;51.262;5.488;2023-10-13T04:50:47;40.35;;;22.63;;
26536;SDS011;14204;51.262;5.488;2023-10-13T04:53:22;41.58;;;23.13;;
26536;SDS011;14204;51.262;5.488;2023-10-13T04:56:20;39.17;;;22.10;;
26536;SDS011;14204;51.262;5.488;2023-10-13T04:59:05;40.03;;;21.00;;
26536;SDS011;14204;51.262;5.488;2023-10-13T05:01:43;38.72;;;21.10;;
26536;SDS011;14204;51.262;5.488;2023-10-13T05:04:27;40.83;;;21.70;;
26536;SDS011;14204;51.262;5.488;2023-10-13T05:07:04;35.95;;;18.80;;
26536;SDS011;14204;51.262;5.488;2023-10-13T05:09:49;28.40;;;16.83;;
26536;SDS011;14204;51.262;5.488;2023-10-13T05:12:33;28.15;;;16.27;;
26536;SDS011;14204;51.262;5.488;2023-10-13T05:15:18;27.42;;;16.85;;
26536;SDS011;14204;51.262;5.488;2023-10-13T05:18:03;27.35;;;15.30;;
26536;SDS011;14204;51.262;5.488;2023-10-13T05:20:48;38.72;;;18.77;;
26536;SDS011;14204;51.262;5.488;2023-10-13T05:23:32;26.48;;;16.13;;
26536;SDS011;14204;51.262;5.488;2023-10-13T05:26:16;28.13;;;17.20;;
26536;SDS011;14204;51.262;5.488;2023-10-13T05:29:00;33.50;;;17.90;;
26536;SDS011;14204;51.262;5.488;2023-10-13T05:31:44;29.77;;;17.13;;
26536;SDS011;14204;51.262;5.488;2023-10-13T05:34:28;28.67;;;15.57;;
26536;SDS011;14204;51.262;5.488;2023-10-13T05:37:12;31.45;;;15.50;;
26536;SDS011;14204;51.262;5.488;2023-10-13T05:39:58;27.80;;;14.25;;
26536;SDS011;14204;51.262;5.488;2023-10-13T05:42:42;25.05;;;14.95;;
26536;SDS011;14204;51.262;5.488;2023-10-13T05:45:26;24.60;;;13.88;;
26536;SDS011;14204;51.262;5.488;2023-10-13T05:48:10;28.42;;;14.90;;
26536;SDS011;14204;51.262;5.488;2023-10-13T05:50:44;23.30;;;13.68;;
26536;SDS011;14204;51.262;5.488;2023-10-13T05:53:35;26.05;;;13.90;;
26536;SDS011;14204;51.262;5.488;2023-10-13T05:56:19;26.27;;;13.05;;
26536;SDS011;14204;51.262;5.488;2023-10-13T05:59:03;24.48;;;13.63;;
26536;SDS011;14204;51.262;5.488;2023-10-13T06:01:48;23.35;;;14.35;;
26536;SDS011;14204;51.262;5.488;2023-10-13T06:04:32;24.40;;;12.20;;
26536;SDS011;14204;51.262;5.488;2023-10-13T06:07:16;33.33;;;13.80;;
26536;SDS011;14204;51.262;5.488;2023-10-13T06:10:00;29.05;;;14.65;;
26536;SDS011;14204;51.262;5.488;2023-10-13T06:12:44;29.00;;;13.50;;
26536;SDS011;14204;51.262;5.488;2023-10-13T06:15:28;28.10;;;13.02;;
26536;SDS011;14204;51.262;5.488;2023-10-13T06:18:12;25.25;;;13.35;;
26536;SDS011;14204;51.262;5.488;2023-10-13T06:20:56;33.80;;;14.93;;
26536;SDS011;14204;51.262;5.488;2023-10-13T06:23:40;31.23;;;13.70;;
26536;SDS011;14204;51.262;5.488;2023-10-13T06:26:24;31.48;;;13.93;;
26536;SDS011;14204;51.262;5.488;2023-10-13T06:29:09;32.15;;;13.95;;
26536;SDS011;14204;51.262;5.488;2023-10-13T06:31:34;34.10;;;13.23;;
26536;SDS011;14204;51.262;5.488;2023-10-13T06:34:01;33.55;;;13.43;;
26536;SDS011;14204;51.262;5.488;2023-10-13T06:36:28;31.13;;;14.45;;
26536;SDS011;14204;51.262;5.488;2023-10-13T06:38:54;28.67;;;14.52;;
26536;SDS011;14204;51.262;5.488;2023-10-13T06:41:43;31.75;;;13.90;;
26536;SDS011;14204;51.262;5.488;2023-10-13T06:44:08;32.60;;;13.68;;
26536;SDS011;14204;51.262;5.488;2023-10-13T06:46:40;33.63;;;14.50;;
26536;SDS011;14204;51.262;5.488;2023-10-13T06:49:06;26.92;;;13.00;;
26536;SDS011;14204;51.262;5.488;2023-10-13T06:51:35;32.72;;;14.20;;
26536;SDS011;14204;51.262;5.488;2023-10-13T06:54:03;28.95;;;13.70;;
26536;SDS011;14204;51.262;5.488;2023-10-13T06:56:35;28.95;;;12.63;;
26536;SDS011;14204;51.262;5.488;2023-10-13T06:59:04;31.42;;;12.13;;
26536;SDS011;14204;51.262;5.488;2023-10-13T07:01:32;29.98;;;13.95;;
26536;SDS011;14204;51.262;5.488;2023-10-13T07:04:04;26.95;;;12.98;;
26536;SDS011;14204;51.262;5.488;2023-10-13T07:06:41;32.17;;;13.48;;
26536;SDS011;14204;51.262;5.488;2023-10-13T07:09:14;33.05;;;12.70;;
26536;SDS011;14204;51.262;5.488;2023-10-13T07:12:04;24.75;;;11.48;;
26536;SDS011;14204;51.262;5.488;2023-10-13T07:14:50;27.67;;;12.43;;
26536;SDS011;14204;51.262;5.488;2023-10-13T07:17:28;23.27;;;12.02;;
26536;SDS011;14204;51.262;5.488;2023-10-13T07:19:58;27.63;;;13.15;;
26536;SDS011;14204;51.262;5.488;2023-10-13T07:22:42;28.38;;;12.27;;
26536;SDS011;14204;51.262;5.488;2023-10-13T07:25:23;29.00;;;11.25;;
26536;SDS011;14204;51.262;5.488;2023-10-13T07:27:50;31.38;;;11.32;;
26536;SDS011;14204;51.262;5.488;2023-10-13T07:30:17;20.65;;;11.15;;
26536;SDS011;14204;51.262;5.488;2023-10-13T07:32:45;25.00;;;12.65;;
26536;SDS011;14204;51.262;5.488;2023-10-13T07:35:14;23.90;;;12.35;;
26536;SDS011;14204;51.262;5.488;2023-10-13T07:37:45;24.33;;;11.35;;
26536;SDS011;14204;51.262;5.488;2023-10-13T07:40:17;29.23;;;12.52;;
26536;SDS011;14204;51.262;5.488;2023-10-13T07:42:56;26.08;;;11.98;;
26536;SDS011;14204;51.262;5.488;2023-10-13T07:45:28;23.17;;;11.65;;
26536;SDS011;14204;51.262;5.488;2023-10-13T07:48:06;27.42;;;10.57;;
26536;SDS011;14204;51.262;5.488;2023-10-13T07:50:45;24.08;;;10.23;;
26536;SDS011;14204;51.262;5.488;2023-10-13T07:53:31;29.85;;;11.38;;
26536;SDS011;14204;51.262;5.488;2023-10-13T07:56:00;27.58;;;10.82;;
26536;SDS011;14204;51.262;5.488;2023-10-13T07:58:30;24.20;;;11.57;;
26536;SDS011;14204;51.262;5.488;2023-10-13T08:00:59;27.48;;;10.20;;
26536;SDS011;14204;51.262;5.488;2023-10-13T08:03:35;24.23;;;9.40;;
26536;SDS011;14204;51.262;5.488;2023-10-13T08:06:11;21.58;;;10.23;;
26536;SDS011;14204;51.262;5.488;2023-10-13T08:08:40;18.90;;;9.82;;
26536;SDS011;14204;51.262;5.488;2023-10-13T08:11:09;26.25;;;9.70;;
26536;SDS011;14204;51.262;5.488;2023-10-13T08:13:48;22.67;;;9.80;;
26536;SDS011;14204;51.262;5.488;2023-10-13T08:16:28;24.92;;;9.43;;
26536;SDS011;14204;51.262;5.488;2023-10-13T08:19:11;20.63;;;9.00;;
26536;SDS011;14204;51.262;5.488;2023-10-13T08:21:41;17.90;;;8.90;;
26536;SDS011;14204;51.262;5.488;2023-10-13T08:24:15;24.27;;;8.48;;
26536;SDS011;14204;51.262;5.488;2023-10-13T08:26:49;17.33;;;8.90;;
26536;SDS011;14204;51.262;5.488;2023-10-13T08:29:34;22.55;;;8.60;;
26536;SDS011;14204;51.262;5.488;2023-10-13T08:32:18;20.65;;;8.80;;
26536;SDS011;14204;51.262;5.488;2023-10-13T08:34:53;17.63;;;9.07;;
26536;SDS011;14204;51.262;5.488;2023-10-13T08:37:19;27.33;;;8.35;;
26536;SDS011;14204;51.262;5.488;2023-10-13T08:39:53;22.08;;;8.63;;
26536;SDS011;14204;51.262;5.488;2023-10-13T08:42:32;23.10;;;8.45;;
26536;SDS011;14204;51.262;5.488;2023-10-13T08:45:09;22.42;;;8.50;;
26536;SDS011;14204;51.262;5.488;2023-10-13T08:47:53;16.45;;;9.75;;
26536;SDS011;14204;51.262;5.488;2023-10-13T08:50:37;18.70;;;8.82;;
26536;SDS011;14204;51.262;5.488;2023-10-13T08:53:25;15.25;;;7.60;;
26536;SDS011;14204;51.262;5.488;2023-10-13T08:56:13;21.20;;;8.98;;
26536;SDS011;14204;51.262;5.488;2023-10-13T08:58:39;19.55;;;8.82;;
26536;SDS011;14204;51.262;5.488;2023-10-13T09:01:21;19.45;;;9.05;;
26536;SDS011;14204;51.262;5.488;2023-10-13T09:04:40;19.42;;;8.85;;
26536;SDS011;14204;51.262;5.488;2023-10-13T09:07:09;19.83;;;8.98;;
26536;SDS011;14204;51.262;5.488;2023-10-13T09:12:16;17.75;;;7.72;;
26536;SDS011;14204;51.262;5.488;2023-10-13T09:14:59;19.42;;;8.15;;
26536;SDS011;14204;51.262;5.488;2023-10-13T09:20:18;19.90;;;8.55;;
26536;SDS011;14204;51.262;5.488;2023-10-13T09:23:08;25.13;;;8.95;;
26536;SDS011;14204;51.262;5.488;2023-10-13T09:25:38;20.45;;;8.48;;
26536;SDS011;14204;51.262;5.488;2023-10-13T09:28:18;21.73;;;8.73;;
26536;SDS011;14204;51.262;5.488;2023-10-13T09:30:47;21.15;;;8.75;;
26536;SDS011;14204;51.262;5.488;2023-10-13T09:33:18;19.42;;;8.25;;
26536;SDS011;14204;51.262;5.488;2023-10-13T09:35:58;15.57;;;8.13;;
26536;SDS011;14204;51.262;5.488;2023-10-13T09:38:26;19.60;;;7.75;;
26536;SDS011;14204;51.262;5.488;2023-10-13T09:40:53;19.13;;;8.60;;
26536;SDS011;14204;51.262;5.488;2023-10-13T09:43:22;19.35;;;8.32;;
26536;SDS011;14204;51.262;5.488;2023-10-13T09:45:50;15.23;;;8.18;;
26536;SDS011;14204;51.262;5.488;2023-10-13T09:51:01;15.80;;;8.48;;
26536;SDS011;14204;51.262;5.488;2023-10-13T09:53:32;22.60;;;8.40;;
26536;SDS011;14204;51.262;5.488;2023-10-13T09:56:03;16.77;;;8.05;;
26536;SDS011;14204;51.262;5.488;2023-10-13T09:58:51;18.33;;;7.80;;
26536;SDS011;14204;51.262;5.488;2023-10-13T10:01:26;17.05;;;7.43;;
26536;SDS011;14204;51.262;5.488;2023-10-13T10:04:06;19.70;;;8.32;;
26536;SDS011;14204;51.262;5.488;2023-10-13T10:06:34;16.15;;;7.65;;
26536;SDS011;14204;51.262;5.488;2023-10-13T10:09:12;22.45;;;9.02;;
26536;SDS011;14204;51.262;5.488;2023-10-13T10:14:16;18.45;;;8.80;;
26536;SDS011;14204;51.262;5.488;2023-10-13T10:16:56;17.52;;;7.90;;
26536;SDS011;14204;51.262;5.488;2023-10-13T10:19:33;26.15;;;8.80;;
26536;SDS011;14204;51.262;5.488;2023-10-13T10:22:10;16.45;;;9.10;;
26536;SDS011;14204;51.262;5.488;2023-10-13T10:24:42;15.73;;;8.32;;
26536;SDS011;14204;51.262;5.488;2023-10-13T10:27:09;20.42;;;8.57;;
26536;SDS011;14204;51.262;5.488;2023-10-13T10:29:39;23.10;;;8.88;;
26536;SDS011;14204;51.262;5.488;2023-10-13T10:32:17;21.23;;;8.52;;
26536;SDS011;14204;51.262;5.488;2023-10-13T10:34:44;17.95;;;8.70;;
26536;SDS011;14204;51.262;5.488;2023-10-13T10:37:10;20.38;;;8.55;;
26536;SDS011;14204;51.262;5.488;2023-10-13T10:39:37;18.70;;;8.65;;
26536;SDS011;14204;51.262;5.488;2023-10-13T10:42:10;16.88;;;8.25;;
26536;SDS011;14204;51.262;5.488;2023-10-13T10:44:41;15.20;;;8.93;;
26536;SDS011;14204;51.262;5.488;2023-10-13T10:47:13;19.40;;;9.40;;
26536;SDS011;14204;51.262;5.488;2023-10-13T10:50:03;17.25;;;7.88;;
26536;SDS011;14204;51.262;5.488;2023-10-13T10:52:45;19.30;;;8.98;;
26536;SDS011;14204;51.262;5.488;2023-10-13T10:55:12;22.48;;;8.27;;
26536;SDS011;14204;51.262;5.488;2023-10-13T10:57:42;20.73;;;9.13;;
26536;SDS011;14204;51.262;5.488;2023-10-13T11:00:20;17.13;;;8.43;;
26536;SDS011;14204;51.262;5.488;2023-10-13T11:02:56;18.38;;;8.43;;
26536;SDS011;14204;51.262;5.488;2023-10-13T11:05:22;16.08;;;8.20;;
26536;SDS011;14204;51.262;5.488;2023-10-13T11:07:57;18.42;;;7.80;;
26536;SDS011;14204;51.262;5.488;2023-10-13T11:10:23;19.48;;;8.70;;
26536;SDS011;14204;51.262;5.488;2023-10-13T11:12:57;21.63;;;7.30;;
26536;SDS011;14204;51.262;5.488;2023-10-13T11:15:43;22.23;;;8.35;;
26536;SDS011;14204;51.262;5.488;2023-10-13T11:18:10;18.65;;;7.88;;
26536;SDS011;14204;51.262;5.488;2023-10-13T11:20:42;24.13;;;8.13;;
26536;SDS011;14204;51.262;5.488;2023-10-13T11:23:13;20.02;;;7.78;;
26536;SDS011;14204;51.262;5.488;2023-10-13T11:25:40;19.77;;;8.02;;
26536;SDS011;14204;51.262;5.488;2023-10-13T11:28:10;18.33;;;6.78;;
26536;SDS011;14204;51.262;5.488;2023-10-13T11:30:44;16.73;;;7.95;;
26536;SDS011;14204;51.262;5.488;2023-10-13T11:33:15;19.52;;;8.20;;
26536;SDS011;14204;51.262;5.488;2023-10-13T11:35:52;21.70;;;8.38;;
26536;SDS011;14204;51.262;5.488;2023-10-13T11:41:05;18.83;;;8.38;;
26536;SDS011;14204;51.262;5.488;2023-10-13T11:43:31;18.95;;;6.80;;
26536;SDS011;14204;51.262;5.488;2023-10-13T11:46:07;22.20;;;7.93;;
26536;SDS011;14204;51.262;5.488;2023-10-13T11:48:33;17.15;;;7.22;;
26536;SDS011;14204;51.262;5.488;2023-10-13T11:51:05;21.17;;;7.85;;
26536;SDS011;14204;51.262;5.488;2023-10-13T11:53:33;22.00;;;9.13;;
26536;SDS011;14204;51.262;5.488;2023-10-13T11:56:02;19.15;;;7.38;;
26536;SDS011;14204;51.262;5.488;2023-10-13T11:58:38;26.10;;;7.20;;
26536;SDS011;14204;51.262;5.488;2023-10-13T12:01:05;19.65;;;7.25;;
26536;SDS011;14204;51.262;5.488;2023-10-13T12:03:37;19.05;;;7.80;;
26536;SDS011;14204;51.262;5.488;2023-10-13T12:06:22;21.23;;;7.68;;
26536;SDS011;14204;51.262;5.488;2023-10-13T12:09:00;22.95;;;8.15;;
26536;SDS011;14204;51.262;5.488;2023-10-13T12:11:43;20.92;;;7.35;;
26536;SDS011;14204;51.262;5.488;2023-10-13T12:14:10;21.05;;;7.68;;
26536;SDS011;14204;51.262;5.488;2023-10-13T12:16:42;22.83;;;7.70;;
26536;SDS011;14204;51.262;5.488;2023-10-13T12:19:14;24.67;;;7.37;;
26536;SDS011;14204;51.262;5.488;2023-10-13T12:21:42;22.85;;;8.05;;
26536;SDS011;14204;51.262;5.488;2023-10-13T12:24:14;24.42;;;7.65;;
26536;SDS011;14204;51.262;5.488;2023-10-13T12:26:59;22.88;;;7.60;;
26536;SDS011;14204;51.262;5.488;2023-10-13T12:29:25;23.92;;;8.70;;
26536;SDS011;14204;51.262;5.488;2023-10-13T12:31:54;25.30;;;7.13;;
26536;SDS011;14204;51.262;5.488;2023-10-13T12:34:35;19.02;;;7.85;;
26536;SDS011;14204;51.262;5.488;2023-10-13T12:37:32;20.50;;;7.78;;
26536;SDS011;14204;51.262;5.488;2023-10-13T12:40:18;23.90;;;7.72;;
26536;SDS011;14204;51.262;5.488;2023-10-13T12:43:06;24.42;;;7.72;;
26536;SDS011;14204;51.262;5.488;2023-10-13T12:45:51;19.35;;;7.20;;
26536;SDS011;14204;51.262;5.488;2023-10-13T12:48:36;21.92;;;8.32;;
26536;SDS011;14204;51.262;5.488;2023-10-13T12:51:23;17.33;;;7.35;;
26536;SDS011;14204;51.262;5.488;2023-10-13T12:53:58;23.88;;;7.40;;
26536;SDS011;14204;51.262;5.488;2023-10-13T12:56:38;25.20;;;7.82;;
26536;SDS011;14204;51.262;5.488;2023-10-13T12:59:09;26.85;;;7.32;;
26536;SDS011;14204;51.262;5.488;2023-10-13T13:01:38;23.60;;;7.60;;
26536;SDS011;14204;51.262;5.488;2023-10-13T13:04:07;22.67;;;8.43;;
26536;SDS011;14204;51.262;5.488;2023-10-13T13:06:45;21.98;;;7.18;;
26536;SDS011;14204;51.262;5.488;2023-10-13T13:09:12;22.95;;;8.85;;
26536;SDS011;14204;51.262;5.488;2023-10-13T13:11:38;23.35;;;8.90;;
26536;SDS011;14204;51.262;5.488;2023-10-13T13:14:07;24.30;;;8.98;;
26536;SDS011;14204;51.262;5.488;2023-10-13T13:16:33;23.05;;;8.82;;
26536;SDS011;14204;51.262;5.488;2023-10-13T13:18:59;20.63;;;8.38;;
26536;SDS011;14204;51.262;5.488;2023-10-13T13:21:35;27.67;;;7.43;;
26536;SDS011;14204;51.262;5.488;2023-10-13T13:24:02;22.40;;;7.20;;
26536;SDS011;14204;51.262;5.488;2023-10-13T13:26:29;21.13;;;7.43;;
26536;SDS011;14204;51.262;5.488;2023-10-13T13:28:56;20.25;;;7.07;;
26536;SDS011;14204;51.262;5.488;2023-10-13T13:31:22;24.23;;;8.02;;
26536;SDS011;14204;51.262;5.488;2023-10-13T13:33:54;20.20;;;7.00;;
26536;SDS011;14204;51.262;5.488;2023-10-13T13:36:20;19.00;;;7.13;;
26536;SDS011;14204;51.262;5.488;2023-10-13T13:38:47;21.70;;;7.70;;
26536;SDS011;14204;51.262;5.488;2023-10-13T13:41:17;20.02;;;8.50;;
26536;SDS011;14204;51.262;5.488;2023-10-13T13:43:43;23.15;;;7.10;;
26536;SDS011;14204;51.262;5.488;2023-10-13T13:46:18;17.67;;;7.32;;
26536;SDS011;14204;51.262;5.488;2023-10-13T13:48:50;17.67;;;7.30;;
26536;SDS011;14204;51.262;5.488;2023-10-13T13:51:23;18.20;;;7.43;;
26536;SDS011;14204;51.262;5.488;2023-10-13T13:53:53;19.85;;;8.00;;
26536;SDS011;14204;51.262;5.488;2023-10-13T13:56:22;17.63;;;6.93;;
26536;SDS011;14204;51.262;5.488;2023-10-13T13:58:51;19.73;;;7.30;;
26536;SDS011;14204;51.262;5.488;2023-10-13T14:01:32;18.25;;;6.50;;
26536;SDS011;14204;51.262;5.488;2023-10-13T14:04:00;22.70;;;7.45;;
26536;SDS011;14204;51.262;5.488;2023-10-13T14:06:28;15.68;;;7.07;;
26536;SDS011;14204;51.262;5.488;2023-10-13T14:08:55;19.58;;;7.13;;
26536;SDS011;14204;51.262;5.488;2023-10-13T14:11:25;16.40;;;6.97;;
26536;SDS011;14204;51.262;5.488;2023-10-13T14:14:04;20.85;;;6.88;;
26536;SDS011;14204;51.262;5.488;2023-10-13T14:16:54;17.20;;;7.30;;
26536;SDS011;14204;51.262;5.488;2023-10-13T14:19:28;17.05;;;6.72;;
26536;SDS011;14204;51.262;5.488;2023-10-13T14:21:57;16.10;;;8.00;;
26536;SDS011;14204;51.262;5.488;2023-10-13T14:24:24;16.67;;;6.93;;
26536;SDS011;14204;51.262;5.488;2023-10-13T14:26:57;13.32;;;6.97;;
26536;SDS011;14204;51.262;5.488;2023-10-13T14:29:44;20.48;;;7.30;;
26536;SDS011;14204;51.262;5.488;2023-10-13T14:32:10;12.40;;;6.68;;
26536;SDS011;14204;51.262;5.488;2023-10-13T14:34:43;27.85;;;6.97;;
26536;SDS011;14204;51.262;5.488;2023-10-13T14:37:09;17.35;;;6.95;;
26536;SDS011;14204;51.262;5.488;2023-10-13T14:39:39;14.30;;;7.10;;
26536;SDS011;14204;51.262;5.488;2023-10-13T14:42:07;16.20;;;6.80;;
26536;SDS011;14204;51.262;5.488;2023-10-13T14:44:34;18.92;;;6.82;;
26536;SDS011;14204;51.262;5.488;2023-10-13T14:47:00;17.88;;;6.40;;
26536;SDS011;14204;51.262;5.488;2023-10-13T14:49:27;15.60;;;6.75;;
26536;SDS011;14204;51.262;5.488;2023-10-13T14:51:53;15.23;;;6.85;;
26536;SDS011;14204;51.262;5.488;2023-10-13T14:54:24;16.65;;;6.95;;
26536;SDS011;14204;51.262;5.488;2023-10-13T14:57:00;15.55;;;7.00;;
26536;SDS011;14204;51.262;5.488;2023-10-13T14:59:29;15.93;;;6.78;;
26536;SDS011;14204;51.262;5.488;2023-10-13T15:01:59;13.55;;;6.85;;
26536;SDS011;14204;51.262;5.488;2023-10-13T15:04:26;18.85;;;6.93;;
26536;SDS011;14204;51.262;5.488;2023-10-13T15:06:53;17.05;;;7.00;;
26536;SDS011;14204;51.262;5.488;2023-10-13T15:09:20;20.67;;;7.35;;
26536;SDS011;14204;51.262;5.488;2023-10-13T15:11:51;16.83;;;7.47;;
26536;SDS011;14204;51.262;5.488;2023-10-13T15:14:19;16.98;;;6.55;;
26536;SDS011;14204;51.262;5.488;2023-10-13T15:16:46;19.88;;;7.35;;
26536;SDS011;14204;51.262;5.488;2023-10-13T15:19:12;10.95;;;6.22;;
26536;SDS011;14204;51.262;5.488;2023-10-13T15:21:38;19.02;;;7.35;;
26536;SDS011;14204;51.262;5.488;2023-10-13T15:24:05;17.02;;;6.78;;
26536;SDS011;14204;51.262;5.488;2023-10-13T15:26:52;19.90;;;7.20;;
26536;SDS011;14204;51.262;5.488;2023-10-13T15:29:25;17.65;;;7.28;;